Terminal Aerodrome Forecast
Issued by NWS

Home | Current Version | Previous Version | Text Only | Print | Product List | Glossary On
Versions: 1 2 3 4 5 6 7 8 9 10 11 12 13 14 15 16 17
602
FTUS42 KFFC 232331
TAFPDK
TAF
KPDK 232331Z 2400/2424 13007KT P6SM BKN045
     FM240800 11006KT P6SM BKN020 BKN050
     FM241500 13009KT P6SM BKN040
     FM241800 13010KT P6SM BKN050
     FM242200 13010KT P6SM SCT050 BKN120=

USA.gov is the U.S. government's official web portal to all federal, state and local government web resources and services.